Time;durP1;ratioP1;P1;durP2;ratioP2;P2;SDS_P1;SDS_P2;PMS_P1;PMS_P2;Temp;Humidity;BMP_temperature;BMP_pressure;BME280_temperature;BME280_humidity;BME280_pressure;Samples;Min_cycle;Max_cycle;Signal;HPM_P1;HPM_P2
2023/01/30 00:01:33;;;;;;;55.97;29.67;;;;;;;5.19;75.42;99766.53;5033307;28;20140;-80
2023/01/30 00:03:59;;;;;;;47.75;27.40;;;;;;;5.23;75.25;99749.00;5033128;28;20057;-81
2023/01/30 00:06:26;;;;;;;51.05;28.23;;;;;;;5.25;75.00;99760.25;5033160;28;20085;-80
2023/01/30 00:08:53;;;;;;;48.80;27.88;;;;;;;5.28;75.31;99773.19;5032977;28;20059;-81
2023/01/30 00:11:20;;;;;;;47.90;26.75;;;;;;;5.32;75.14;99742.59;5032639;28;20145;-80
2023/01/30 00:13:49;;;;;;;50.38;26.10;;;;;;;5.34;75.09;99754.69;5033325;28;20049;-81
2023/01/30 00:16:17;;;;;;;49.35;27.30;;;;;;;5.37;75.54;99748.50;5032756;28;20433;-81
2023/01/30 00:18:43;;;;;;;49.85;27.40;;;;;;;5.40;75.18;99729.28;5033029;28;20061;-82
2023/01/30 00:21:12;;;;;;;52.03;27.58;;;;;;;5.41;75.27;99741.41;5032740;28;20057;-81
2023/01/30 00:23:39;;;;;;;48.83;28.58;;;;;;;5.43;75.38;99721.34;5033140;28;20049;-80
2023/01/30 00:26:06;;;;;;;47.65;26.15;;;;;;;5.47;75.41;99736.00;5032506;28;20057;-81
2023/01/30 00:28:33;;;;;;;46.10;25.70;;;;;;;5.50;75.28;99715.00;5032862;28;20548;-81
2023/01/30 00:30:59;;;;;;;49.28;27.55;;;;;;;5.54;75.44;99723.56;5014813;28;20053;-81
2023/01/30 00:33:26;;;;;;;48.50;27.58;;;;;;;5.57;75.42;99726.91;5032747;28;20050;-81
2023/01/30 00:35:54;;;;;;;45.90;25.90;;;;;;;5.60;75.47;99734.63;5032531;28;20057;-82
2023/01/30 00:38:22;;;;;;;46.55;26.35;;;;;;;5.63;75.45;99712.78;5032307;28;20140;-80
2023/01/30 00:40:49;;;;;;;48.80;27.42;;;;;;;5.66;75.29;99722.25;5014891;28;20106;-82
2023/01/30 00:48:59;;;;;;;51.17;27.13;;;;;;;5.75;75.35;99669.66;5003779;28;20053;-81
2023/01/30 00:51:25;;;;;;;48.65;27.90;;;;;;;5.74;75.36;99665.34;5032228;28;20417;-81
2023/01/30 00:53:52;;;;;;;53.13;28.15;;;;;;;5.75;75.24;99667.06;5032295;28;20054;-80
2023/01/30 00:56:18;;;;;;;46.90;28.35;;;;;;;5.73;75.68;99654.03;5031884;28;20056;-81
2023/01/30 00:58:45;;;;;;;45.55;27.05;;;;;;;5.77;75.43;99648.72;5032022;28;20049;-80
2023/01/30 01:01:11;;;;;;;45.67;27.60;;;;;;;5.78;75.61;99617.31;5032135;28;20049;-80
2023/01/30 01:03:38;;;;;;;49.58;28.80;;;;;;;5.79;75.56;99631.22;5031703;28;20056;-80
2023/01/30 01:06:05;;;;;;;50.63;29.95;;;;;;;5.77;75.89;99618.22;5030716;28;20533;-80
2023/01/30 01:08:31;;;;;;;44.20;27.77;;;;;;;5.77;75.72;99619.97;5031978;28;20058;-81
2023/01/30 01:10:58;;;;;;;49.53;28.05;;;;;;;5.77;75.72;99613.00;5031909;28;20057;-81
2023/01/30 01:13:24;;;;;;;45.95;27.73;;;;;;;5.79;75.84;99603.34;5031943;28;20080;-80
2023/01/30 01:15:51;;;;;;;48.15;27.45;;;;;;;5.79;76.00;99600.72;5014080;28;20053;-80
2023/01/30 01:18:17;;;;;;;51.33;28.38;;;;;;;5.78;76.29;99595.56;5031628;28;20411;-80
2023/01/30 01:20:44;;;;;;;50.15;27.55;;;;;;;5.79;76.36;99587.66;5031851;28;20140;-81
2023/01/30 01:23:11;;;;;;;47.08;29.02;;;;;;;5.81;76.48;99604.13;5031864;28;20060;-81
2023/01/30 01:25:37;;;;;;;55.72;30.98;;;;;;;5.82;76.39;99594.53;5031616;28;20104;-81
2023/01/30 01:28:04;;;;;;;51.63;29.05;;;;;;;5.82;76.44;99595.38;5031618;28;20053;-81
2023/01/30 01:30:30;;;;;;;52.92;31.15;;;;;;;5.82;76.87;99576.25;5013887;28;20085;-81
2023/01/30 01:32:57;;;;;;;51.72;31.35;;;;;;;5.83;77.16;99584.00;5031609;28;20156;-80
2023/01/30 01:35:23;;;;;;;52.40;29.20;;;;;;;5.84;77.24;99590.94;5031598;28;20049;-80
2023/01/30 01:37:54;;;;;;;52.80;30.17;;;;;;;5.87;77.48;99585.59;5031165;28;20478;-81
2023/01/30 01:43:22;;;;;;;51.78;28.38;;;;;;;5.89;77.92;99574.22;5030872;28;20057;-80
2023/01/30 01:45:52;;;;;;;57.35;32.70;;;;;;;5.91;77.96;99565.41;5031107;28;20775;-81
2023/01/30 01:48:27;;;;;;;53.70;30.65;;;;;;;5.91;78.03;99564.59;5031088;28;20468;-81
2023/01/30 01:51:00;;;;;;;55.90;30.90;;;;;;;5.93;77.73;99555.75;5031126;28;20058;-82
2023/01/30 01:53:35;;;;;;;56.10;32.70;;;;;;;5.95;78.19;99526.97;5030964;28;20057;-81
2023/01/30 01:56:04;;;;;;;53.45;30.30;;;;;;;5.96;78.04;99528.66;5030908;28;20060;-81
2023/01/30 01:58:36;;;;;;;60.55;33.08;;;;;;;5.98;78.18;99545.13;5031073;28;20684;-81
2023/01/30 02:01:02;;;;;;;59.60;32.67;;;;;;;6.00;78.37;99514.56;5030904;28;20057;-80
2023/01/30 02:03:33;;;;;;;57.70;31.98;;;;;;;5.99;78.81;99512.88;5013180;28;20472;-81
2023/01/30 02:06:02;;;;;;;60.65;33.53;;;;;;;6.02;78.79;99523.16;5030726;28;20053;-80
2023/01/30 02:08:41;;;;;;;62.35;34.55;;;;;;;6.02;79.24;99507.50;5030931;28;20087;-81
2023/01/30 02:11:13;;;;;;;51.97;30.92;;;;;;;6.09;78.85;99506.34;5030255;28;20057;-82
2023/01/30 02:13:40;;;;;;;58.08;31.70;;;;;;;6.11;78.86;99529.81;5010753;28;20057;-81
2023/01/30 02:16:08;;;;;;;58.33;33.33;;;;;;;6.13;79.19;99531.44;4998172;28;20093;-80
2023/01/30 02:18:38;;;;;;;57.28;31.38;;;;;;;6.16;79.12;99525.22;5030101;28;20252;-81
2023/01/30 02:21:29;;;;;;;50.15;30.92;;;;;;;6.16;79.53;99525.22;5013013;28;20814;-81
2023/01/30 02:24:15;;;;;;;56.40;32.17;;;;;;;6.19;79.63;99524.25;5013081;28;20056;-82
2023/01/30 02:26:48;;;;;;;57.10;28.98;;;;;;;6.27;79.02;99523.94;5030266;28;20123;-81
2023/01/30 02:29:21;;;;;;;57.10;33.03;;;;;;;6.30;79.06;99513.34;5030937;28;20123;-80
2023/01/30 02:32:28;;;;;;;52.55;31.27;;;;;;;6.28;79.22;99508.16;5030680;28;20053;-80
2023/01/30 02:35:13;;;;;;;49.75;28.52;;;;;;;6.32;79.04;99517.56;5013131;28;20053;-80
2023/01/30 02:38:10;;;;;;;52.00;29.65;;;;;;;6.33;78.99;99497.53;5030605;28;20053;-80
2023/01/30 02:40:48;;;;;;;50.75;29.52;;;;;;;6.39;78.88;99513.78;5030191;28;20065;-82
2023/01/30 02:43:59;;;;;;;50.40;30.48;;;;;;;6.39;79.09;99499.84;5010814;28;20391;-81
2023/01/30 02:46:31;;;;;;;50.55;29.83;;;;;;;6.42;79.04;99493.69;4949318;29;20051;-81
2023/01/30 02:49:10;;;;;;;52.97;30.70;;;;;;;6.39;79.05;99478.94;4950052;29;20554;-80
2023/01/30 02:51:38;;;;;;;44.30;28.10;;;;;;;6.42;79.00;99455.28;4971663;28;20665;-80
2023/01/30 02:54:06;;;;;;;47.40;28.33;;;;;;;6.42;79.13;99467.53;5010762;28;20141;-81
2023/01/30 02:56:45;;;;;;;49.25;28.95;;;;;;;6.39;79.15;99461.50;5009218;28;20054;-80
2023/01/30 02:59:17;;;;;;;44.08;27.35;;;;;;;6.41;79.13;99471.03;4993184;28;20058;-81
2023/01/30 03:01:58;;;;;;;51.03;28.77;;;;;;;6.41;79.07;99456.22;5010516;28;20502;-81
2023/01/30 03:04:55;;;;;;;43.33;26.95;;;;;;;6.41;79.29;99444.91;5010259;28;20136;-81
2023/01/30 03:07:25;;;;;;;40.35;25.42;;;;;;;6.44;79.12;99455.22;4993103;28;20057;-80
2023/01/30 03:10:10;;;;;;;42.00;25.45;;;;;;;6.41;79.33;99445.75;4996406;28;20062;-80
2023/01/30 03:12:56;;;;;;;36.97;24.65;;;;;;;6.46;79.37;99442.91;5014310;28;20530;-80
2023/01/30 03:15:48;;;;;;;40.20;27.05;;;;;;;6.39;79.48;99448.44;5014162;28;20415;-80
2023/01/30 03:18:16;;;;;;;37.28;23.23;;;;;;;6.47;79.04;99460.31;5014192;28;20498;-79
2023/01/30 03:20:43;;;;;;;41.03;25.85;;;;;;;6.46;79.79;99427.22;5014309;28;20062;-80
2023/01/30 03:23:09;;;;;;;42.45;26.15;;;;;;;6.45;79.74;99420.31;5014158;28;20062;-80
2023/01/30 03:25:40;;;;;;;36.97;24.65;;;;;;;6.43;79.65;99415.16;5013967;28;20149;-80
2023/01/30 03:28:08;;;;;;;34.60;22.35;;;;;;;6.47;79.76;99424.53;5014146;28;20573;-80
2023/01/30 03:30:35;;;;;;;35.38;24.30;;;;;;;6.48;79.68;99407.09;5013867;28;20482;-80
2023/01/30 03:33:01;;;;;;;43.50;25.02;;;;;;;6.50;79.94;99410.47;5014164;28;20141;-80
2023/01/30 03:35:29;;;;;;;35.80;23.45;;;;;;;6.53;79.91;99412.13;5013865;28;20068;-80
2023/01/30 03:37:57;;;;;;;36.78;22.42;;;;;;;6.54;79.71;99398.13;5014127;28;20058;-79
2023/01/30 03:40:23;;;;;;;35.30;22.92;;;;;;;6.57;79.88;99406.69;5013996;28;20394;-80
2023/01/30 03:42:50;;;;;;;36.17;23.98;;;;;;;6.58;80.02;99390.06;5014222;28;20116;-79
2023/01/30 03:45:16;;;;;;;34.35;23.08;;;;;;;6.60;80.14;99393.47;5013707;28;20100;-79
2023/01/30 03:47:43;;;;;;;36.25;22.55;;;;;;;6.61;79.94;99395.16;5013718;28;20045;-80
2023/01/30 03:50:10;;;;;;;32.50;22.02;;;;;;;6.64;80.14;99408.09;5013747;28;20069;-79
2023/01/30 03:52:36;;;;;;;30.10;20.77;;;;;;;6.65;80.26;99380.16;4996352;28;20145;-79
2023/01/30 03:55:04;;;;;;;35.13;23.85;;;;;;;6.66;80.52;99392.34;5013569;28;20501;-79
2023/01/30 03:57:30;;;;;;;31.10;21.17;;;;;;;6.70;80.24;99383.44;5013559;28;20053;-79
2023/01/30 03:59:57;;;;;;;31.08;20.42;;;;;;;6.72;80.39;99370.25;5013668;28;20056;-80
2023/01/30 04:02:25;;;;;;;27.90;19.15;;;;;;;6.76;80.26;99379.66;5013437;28;20084;-79
2023/01/30 04:04:52;;;;;;;31.92;20.23;;;;;;;6.79;80.47;99392.59;5013133;28;20067;-79
2023/01/30 04:07:18;;;;;;;31.83;20.88;;;;;;;6.80;80.62;99396.06;4995721;28;20046;-79
2023/01/30 04:09:45;;;;;;;29.13;19.15;;;;;;;6.82;80.70;99382.00;5013652;28;20058;-79
2023/01/30 04:12:12;;;;;;;27.05;19.65;;;;;;;6.85;80.65;99371.41;5013313;28;20588;-79
2023/01/30 04:14:38;;;;;;;24.23;17.77;;;;;;;6.91;80.89;99383.31;5013073;28;20056;-79
2023/01/30 04:17:05;;;;;;;25.70;17.25;;;;;;;6.95;80.85;99390.09;5013105;28;20050;-79
2023/01/30 04:19:32;;;;;;;25.67;17.83;;;;;;;6.99;80.75;99394.25;5012670;28;20069;-79
2023/01/30 04:21:58;;;;;;;26.67;17.67;;;;;;;7.02;80.89;99388.88;5013410;28;20082;-79
2023/01/30 04:24:25;;;;;;;28.00;18.92;;;;;;;7.05;80.84;99366.94;5013135;28;20089;-79
2023/01/30 04:26:51;;;;;;;25.83;17.48;;;;;;;7.10;81.02;99380.66;5012892;28;20065;-79
2023/01/30 04:29:18;;;;;;;21.90;16.50;;;;;;;7.15;80.97;99383.88;4995595;28;20115;-79
2023/01/30 04:31:44;;;;;;;23.65;16.67;;;;;;;7.19;80.78;99374.13;5012938;28;20050;-79
2023/01/30 04:34:11;;;;;;;22.00;15.55;;;;;;;7.24;81.13;99376.50;5012770;28;20061;-79
2023/01/30 04:36:37;;;;;;;18.40;14.07;;;;;;;7.29;80.69;99364.06;5012891;28;20421;-79
2023/01/30 04:39:04;;;;;;;19.10;14.77;;;;;;;7.33;80.59;99376.06;4995571;28;20057;-78
2023/01/30 04:41:30;;;;;;;19.10;13.82;;;;;;;7.37;80.89;99380.22;5012679;28;20054;-79
2023/01/30 04:46:22;;;;;;;15.20;12.77;;;;;;;7.44;80.96;99375.50;5011919;22;20553;-82
2023/01/30 04:48:49;;;;;;;15.38;11.40;;;;;;;7.49;81.00;99373.53;5032359;28;20095;-81
2023/01/30 04:51:15;;;;;;;14.45;11.77;;;;;;;7.53;80.76;99379.47;5032382;28;20054;-80
2023/01/30 04:53:41;;;;;;;14.20;11.35;;;;;;;7.58;80.89;99384.47;5032720;28;20065;-80
2023/01/30 04:56:08;;;;;;;14.93;11.35;;;;;;;7.60;80.84;99383.47;5032144;28;20057;-81
2023/01/30 04:58:34;;;;;;;14.40;10.85;;;;;;;7.63;80.55;99375.44;5032396;28;20057;-80
2023/01/30 05:01:24;;;;;;;13.80;10.70;;;;;;;7.63;80.62;99375.44;5032415;28;20411;-80
2023/01/30 05:03:54;;;;;;;11.73;8.90;;;;;;;7.68;80.54;99383.94;5032410;28;20063;-81
2023/01/30 05:06:21;;;;;;;10.98;7.45;;;;;;;7.73;80.26;99383.69;5014532;28;20057;-80
2023/01/30 05:08:49;;;;;;;9.52;7.22;;;;;;;7.75;80.58;99375.75;5032057;28;20088;-81
2023/01/30 05:11:16;;;;;;;10.23;7.97;;;;;;;7.77;80.36;99384.34;5032030;28;20053;-80
2023/01/30 05:13:43;;;;;;;11.98;9.18;;;;;;;7.77;80.46;99364.25;5031965;28;20049;-81
2023/01/30 05:16:11;;;;;;;12.77;7.97;;;;;;;7.77;80.16;99368.63;5013871;28;20521;-81
2023/01/30 05:18:37;;;;;;;10.50;7.95;;;;;;;7.78;80.02;99375.59;5011728;28;20058;-81
2023/01/30 05:21:11;;;;;;;8.23;6.40;;;;;;;7.78;79.91;99386.06;5022899;28;20132;-81
2023/01/30 05:23:38;;;;;;;9.25;6.38;;;;;;;7.80;79.61;99378.97;5011412;28;20719;-81
2023/01/30 05:26:05;;;;;;;8.88;5.95;;;;;;;7.80;80.06;99373.72;5031435;28;20058;-80
2023/01/30 05:28:32;;;;;;;7.30;6.18;;;;;;;7.80;80.05;99368.47;5013933;28;20057;-81
2023/01/30 05:31:05;;;;;;;7.60;5.25;;;;;;;7.79;79.70;99382.53;5029775;28;20050;-81
2023/01/30 05:33:32;;;;;;;7.78;6.38;;;;;;;7.80;79.83;99377.19;5031899;28;20144;-80
2023/01/30 05:35:59;;;;;;;9.05;6.03;;;;;;;7.82;79.83;99371.88;5031339;28;20152;-80
2023/01/30 05:38:26;;;;;;;9.88;6.35;;;;;;;7.82;80.11;99371.88;5031812;28;20701;-80
2023/01/30 05:41:04;;;;;;;12.05;6.47;;;;;;;7.81;79.63;99372.78;5031721;28;20061;-81
2023/01/30 05:43:32;;;;;;;12.63;5.70;;;;;;;7.85;79.74;99376.13;5031717;28;20058;-81
2023/01/30 05:46:00;;;;;;;8.23;5.32;;;;;;;7.86;79.93;99368.19;5030166;28;20049;-81
2023/01/30 05:48:27;;;;;;;15.45;5.53;;;;;;;7.86;79.92;99362.94;5030625;28;20494;-81
2023/01/30 05:50:56;;;;;;;12.38;5.65;;;;;;;7.89;80.05;99375.03;5022937;28;20050;-80
2023/01/30 05:53:25;;;;;;;8.35;4.85;;;;;;;7.89;80.27;99372.41;5009171;28;20084;-81
2023/01/30 05:56:00;;;;;;;14.48;4.97;;;;;;;7.89;79.74;99360.13;4993773;28;20137;-81
2023/01/30 05:58:27;;;;;;;9.80;4.40;;;;;;;7.92;79.80;99364.38;4994131;28;20169;-81
2023/01/30 06:00:54;;;;;;;16.00;4.47;;;;;;;7.93;79.48;99372.16;5011567;28;20057;-81
2023/01/30 06:03:20;;;;;;;10.40;4.22;;;;;;;7.94;79.80;99368.63;5011615;28;20058;-81
2023/01/30 06:05:47;;;;;;;10.65;4.28;;;;;;;7.96;79.98;99368.53;5011204;28;20380;-81
2023/01/30 06:08:13;;;;;;;14.85;4.63;;;;;;;7.99;79.52;99378.03;5011357;28;20069;-81
2023/01/30 06:10:40;;;;;;;13.13;4.20;;;;;;;7.98;79.58;99382.41;5011254;28;20096;-81
2023/01/30 06:13:09;;;;;;;13.70;4.00;;;;;;;8.00;79.87;99387.59;5010978;28;20412;-81
2023/01/30 06:15:36;;;;;;;11.02;4.10;;;;;;;8.02;79.47;99373.47;4993915;28;20069;-81
2023/01/30 06:18:03;;;;;;;10.70;3.30;;;;;;;8.02;79.56;99394.44;5011307;28;20092;-81
2023/01/30 06:20:29;;;;;;;10.52;4.30;;;;;;;8.04;79.48;99389.13;5011266;28;20057;-81
2023/01/30 06:22:56;;;;;;;14.95;4.30;;;;;;;8.05;79.58;99393.41;5011403;28;20057;-81
2023/01/30 06:25:22;;;;;;;17.02;4.40;;;;;;;8.05;79.14;99403.91;4995534;28;20056;-76
2023/01/30 06:27:49;;;;;;;15.73;3.70;;;;;;;8.06;79.17;99405.59;5030399;28;20476;-78
2023/01/30 06:30:15;;;;;;;14.85;3.08;;;;;;;8.06;79.16;99402.97;5030236;28;20414;-77
2023/01/30 06:33:05;;;;;;;14.30;3.40;;;;;;;8.02;77.94;99402.28;5029282;28;20132;-77
2023/01/30 06:35:32;;;;;;;10.35;2.90;;;;;;;8.06;78.40;99416.94;5029390;28;20057;-76
2023/01/30 06:38:08;;;;;;;17.15;3.00;;;;;;;8.03;77.72;99395.25;5003361;28;20601;-78
2023/01/30 06:40:44;;;;;;;11.73;2.88;;;;;;;8.03;77.92;99418.84;5020109;28;20054;-77
2023/01/30 06:43:11;;;;;;;10.73;2.50;;;;;;;8.04;77.98;99415.31;5029845;28;20438;-77
2023/01/30 06:45:37;;;;;;;10.13;3.10;;;;;;;8.02;77.92;99401.44;5028971;28;20056;-77
2023/01/30 06:48:04;;;;;;;16.75;3.20;;;;;;;8.01;77.80;99418.09;5029000;28;20053;-77
2023/01/30 06:50:31;;;;;;;15.20;3.20;;;;;;;7.99;77.84;99422.59;5021510;28;20053;-77
2023/01/30 06:53:02;;;;;;;12.43;2.95;;;;;;;7.95;77.07;99420.13;5028450;28;20061;-76
2023/01/30 06:55:29;;;;;;;12.63;2.83;;;;;;;7.95;77.65;99420.13;5022149;28;20382;-77
2023/01/30 06:58:05;;;;;;;16.60;2.72;;;;;;;7.92;76.88;99425.50;5022192;28;20056;-77
2023/01/30 07:00:39;;;;;;;18.13;3.50;;;;;;;7.91;77.24;99431.69;5030328;28;20068;-76
2023/01/30 07:03:20;;;;;;;13.07;3.28;;;;;;;7.89;76.33;99430.06;5013809;28;20057;-77
2023/01/30 07:05:55;;;;;;;14.57;3.03;;;;;;;7.90;77.13;99421.28;5014150;28;20132;-77
2023/01/30 07:08:24;;;;;;;13.63;3.00;;;;;;;7.87;77.38;99435.38;5013054;28;20128;-77
2023/01/30 07:10:51;;;;;;;19.38;3.50;;;;;;;7.85;77.21;99426.72;5012932;28;20412;-79
2023/01/30 07:13:17;;;;;;;15.10;3.00;;;;;;;7.82;77.37;99440.84;5030409;28;20065;-77
2023/01/30 07:15:45;;;;;;;16.45;3.55;;;;;;;7.81;77.42;99439.16;5030104;28;20053;-77
2023/01/30 07:18:12;;;;;;;14.55;2.78;;;;;;;7.80;77.28;99444.47;5029995;28;20517;-78
2023/01/30 07:20:40;;;;;;;16.00;4.25;;;;;;;7.80;77.64;99458.44;5028837;28;20520;-77
2023/01/30 07:23:06;;;;;;;19.73;4.40;;;;;;;7.79;77.80;99466.38;5021917;28;20068;-77
2023/01/30 07:25:33;;;;;;;17.08;3.47;;;;;;;7.77;77.45;99457.72;5028918;28;20073;-77
2023/01/30 07:28:01;;;;;;;16.17;3.20;;;;;;;7.76;77.45;99463.88;5027415;28;20057;-81
2023/01/30 07:30:31;;;;;;;14.93;3.10;;;;;;;7.73;76.92;99451.78;5011355;28;20502;-80
2023/01/30 07:32:59;;;;;;;25.40;3.75;;;;;;;7.74;77.30;99447.41;5026191;28;20056;-80
2023/01/30 07:35:27;;;;;;;16.48;3.72;;;;;;;7.73;76.87;99450.97;5008101;28;20144;-80
2023/01/30 07:37:54;;;;;;;15.50;3.58;;;;;;;7.72;77.35;99457.09;5029876;28;20057;-80
2023/01/30 07:40:21;;;;;;;14.00;3.33;;;;;;;7.71;77.25;99455.41;5012716;28;20057;-80
2023/01/30 07:43:05;;;;;;;24.52;3.70;;;;;;;7.67;75.82;99460.81;5015229;28;20069;-80
2023/01/30 07:45:37;;;;;;;16.20;3.10;;;;;;;7.68;76.79;99454.66;5013792;28;20054;-81
2023/01/30 07:48:03;;;;;;;18.35;3.60;;;;;;;7.68;77.22;99446.81;5012195;28;20395;-81
2023/01/30 07:50:30;;;;;;;13.07;3.33;;;;;;;7.69;77.35;99456.34;5012017;28;20049;-81
2023/01/30 07:52:56;;;;;;;18.60;3.33;;;;;;;7.68;77.47;99454.66;5030288;28;20058;-81
2023/01/30 07:55:23;;;;;;;15.40;3.42;;;;;;;7.70;77.44;99454.56;5014900;28;20524;-81
2023/01/30 07:57:50;;;;;;;13.30;3.10;;;;;;;7.69;77.44;99468.59;5016060;28;20060;-81
2023/01/30 08:00:17;;;;;;;15.30;3.55;;;;;;;7.69;77.27;99464.22;5033429;28;20057;-81
2023/01/30 08:02:44;;;;;;;23.52;3.80;;;;;;;7.68;77.08;99470.38;5033497;28;20056;-81
2023/01/30 08:05:10;;;;;;;20.13;3.47;;;;;;;7.68;76.97;99461.66;5015424;28;20088;-81
2023/01/30 08:07:37;;;;;;;12.38;3.45;;;;;;;7.68;76.83;99456.44;5033365;28;20055;-81
2023/01/30 08:10:03;;;;;;;18.70;3.47;;;;;;;7.67;76.54;99465.22;5033442;28;20059;-80
2023/01/30 08:12:30;;;;;;;22.80;3.88;;;;;;;7.65;76.25;99459.19;5033408;28;20096;-80
2023/01/30 08:14:56;;;;;;;19.20;3.90;;;;;;;7.62;76.68;99461.97;5033176;28;20068;-80
2023/01/30 08:17:23;;;;;;;23.50;4.25;;;;;;;7.60;76.78;99462.06;5032769;28;20057;-80
2023/01/30 08:19:49;;;;;;;14.73;3.30;;;;;;;7.59;76.88;99462.94;5033377;28;20053;-81
2023/01/30 08:22:16;;;;;;;15.43;2.95;;;;;;;7.58;76.92;99453.41;5033147;28;20406;-80
2023/01/30 08:24:42;;;;;;;18.90;4.25;;;;;;;7.59;77.04;99455.09;5032871;28;20081;-80
2023/01/30 08:27:09;;;;;;;19.60;3.55;;;;;;;7.60;77.15;99462.06;5032716;28;20084;-79
2023/01/30 08:29:36;;;;;;;19.58;3.42;;;;;;;7.61;77.18;99462.88;5033093;28;20064;-80
2023/01/30 08:32:02;;;;;;;14.00;2.85;;;;;;;7.62;77.23;99475.06;5032881;28;20054;-80
2023/01/30 08:34:29;;;;;;;17.25;3.58;;;;;;;7.63;76.70;99476.75;5015296;28;20056;-80
2023/01/30 08:36:55;;;;;;;17.73;3.35;;;;;;;7.63;76.91;99472.34;5032625;28;20049;-81
2023/01/30 08:39:22;;;;;;;27.70;4.13;;;;;;;7.65;76.78;99486.25;5032876;28;20061;-81
2023/01/30 08:41:48;;;;;;;25.02;3.92;;;;;;;7.66;76.49;99482.69;5015329;28;20120;-80
2023/01/30 08:44:15;;;;;;;16.35;2.97;;;;;;;7.67;76.06;99458.19;5032585;28;20504;-80
2023/01/30 08:46:41;;;;;;;19.70;3.88;;;;;;;7.71;76.73;99465.91;5032131;28;20056;-80
2023/01/30 08:49:09;;;;;;;21.13;3.22;;;;;;;7.72;75.90;99454.50;5032601;28;20535;-80
2023/01/30 08:51:35;;;;;;;19.95;3.92;;;;;;;7.73;76.37;99446.56;5032570;28;20104;-80
2023/01/30 08:54:02;;;;;;;17.27;3.42;;;;;;;7.76;75.87;99477.00;5032660;28;20049;-80
2023/01/30 08:56:28;;;;;;;22.77;3.35;;;;;;;7.77;75.93;99478.69;5032203;28;20556;-81
2023/01/30 08:58:55;;;;;;;14.48;3.47;;;;;;;7.77;76.07;99479.53;5032274;28;20053;-80
2023/01/30 09:01:21;;;;;;;25.63;4.80;;;;;;;7.79;76.08;99475.09;5032564;28;20179;-80
2023/01/30 09:03:48;;;;;;;14.88;2.92;;;;;;;7.81;76.28;99477.59;5014851;28;20065;-80
2023/01/30 09:06:14;;;;;;;17.55;3.60;;;;;;;7.81;75.86;99480.22;5030916;28;20551;-80
2023/01/30 09:08:41;;;;;;;25.30;3.70;;;;;;;7.80;75.74;99476.78;5032108;28;20678;-80
2023/01/30 09:11:09;;;;;;;22.90;4.18;;;;;;;7.79;74.96;99493.44;5032270;28;20057;-80
2023/01/30 09:13:39;;;;;;;18.63;3.42;;;;;;;7.79;75.32;99475.09;5032115;28;20057;-80
2023/01/30 09:16:06;;;;;;;20.35;3.97;;;;;;;7.80;75.40;99468.91;5032415;28;20147;-80
2023/01/30 09:18:32;;;;;;;22.00;3.85;;;;;;;7.80;75.59;99468.06;5031755;28;20525;-80
2023/01/30 09:21:03;;;;;;;20.65;3.45;;;;;;;7.79;74.85;99482.09;5032153;28;20049;-80
2023/01/30 09:23:30;;;;;;;25.23;4.53;;;;;;;7.78;75.56;99486.47;5014173;28;20502;-80
2023/01/30 09:25:57;;;;;;;22.48;3.35;;;;;;;7.78;75.31;99491.72;5031736;28;20065;-80
2023/01/30 09:28:23;;;;;;;16.42;4.13;;;;;;;7.77;75.37;99481.31;5031590;28;20133;-81
2023/01/30 09:30:50;;;;;;;27.08;5.07;;;;;;;7.77;75.59;99479.53;5032057;28;20721;-81
2023/01/30 09:33:19;;;;;;;19.17;3.17;;;;;;;7.77;75.48;99484.78;5031820;28;20080;-81
2023/01/30 09:35:47;;;;;;;23.30;3.97;;;;;;;7.78;75.47;99467.28;5031959;28;20054;-80
2023/01/30 09:38:14;;;;;;;27.50;4.40;;;;;;;7.78;75.59;99494.31;5031479;28;20057;-82
2023/01/30 09:40:53;;;;;;;19.33;3.90;;;;;;;7.75;74.05;99498.88;5031523;28;20058;-81
2023/01/30 09:43:36;;;;;;;26.70;5.65;;;;;;;7.73;72.95;99493.72;5013991;28;20057;-81
2023/01/30 09:46:22;;;;;;;22.20;4.32;;;;;;;7.74;74.13;99497.19;5031277;28;20057;-81
2023/01/30 09:48:59;;;;;;;19.55;4.20;;;;;;;7.77;75.74;99510.13;5031305;28;20145;-81
2023/01/30 09:51:39;;;;;;;20.45;4.03;;;;;;;7.75;74.55;99499.75;5031623;28;20061;-80
2023/01/30 09:54:23;;;;;;;21.48;3.88;;;;;;;7.76;74.48;99506.66;5013961;28;20049;-81
2023/01/30 09:57:07;;;;;;;27.90;4.22;;;;;;;7.77;74.30;99482.16;5031102;28;20054;-80
2023/01/30 10:00:15;;;;;;;24.45;4.38;;;;;;;7.78;73.86;99490.88;5031220;28;20061;-81
2023/01/30 10:03:07;;;;;;;19.63;3.33;;;;;;;7.78;74.17;99473.38;5031119;28;20509;-80
2023/01/30 10:05:43;;;;;;;21.00;4.10;;;;;;;7.82;75.28;99479.31;5030818;28;20064;-80
2023/01/30 10:08:18;;;;;;;22.75;3.70;;;;;;;7.81;73.19;99475.84;5031257;28;20057;-80
2023/01/30 10:11:16;;;;;;;19.92;3.97;;;;;;;7.81;73.10;99488.94;5030940;28;20513;-80
2023/01/30 10:14:04;;;;;;;21.25;3.30;;;;;;;7.85;73.17;99488.81;5026349;28;20053;-80
2023/01/30 10:17:03;;;;;;;16.35;3.70;;;;;;;7.85;72.92;99500.09;5030970;28;20057;-81
2023/01/30 10:19:49;;;;;;;31.45;4.43;;;;;;;7.88;73.49;99491.25;5030421;28;20057;-80
2023/01/30 10:22:40;;;;;;;16.17;3.67;;;;;;;7.90;73.14;99511.25;5030896;28;20053;-80
2023/01/30 10:25:22;;;;;;;20.88;3.92;;;;;;;7.97;75.69;99500.44;5030786;28;20061;-80
2023/01/30 10:28:00;;;;;;;20.00;4.00;;;;;;;7.96;73.44;99499.56;5013277;28;20457;-80
2023/01/30 10:30:26;;;;;;;21.65;4.22;;;;;;;8.00;75.04;99502.91;5030772;28;20057;-80
2023/01/30 10:33:02;;;;;;;18.67;2.83;;;;;;;8.01;74.10;99501.97;5030683;28;20518;-80
2023/01/30 10:35:34;;;;;;;19.50;3.88;;;;;;;8.04;74.33;99494.78;5013034;28;20077;-80
2023/01/30 10:38:25;;;;;;;17.88;3.90;;;;;;;8.05;72.88;99495.66;5030769;28;20067;-80
2023/01/30 10:41:00;;;;;;;15.85;3.25;;;;;;;8.09;72.92;99494.56;5030508;28;20068;-80
2023/01/30 10:46:49;;;;;;;18.88;3.25;;;;;;;8.15;73.62;99478.50;5111165;22;20056;-78
2023/01/30 10:49:38;;;;;;;19.00;3.25;;;;;;;8.16;73.55;99489.88;5030541;28;20449;-78
2023/01/30 10:52:28;;;;;;;16.60;3.50;;;;;;;8.14;71.88;99489.06;5030220;28;20486;-78
2023/01/30 10:55:01;;;;;;;17.23;3.25;;;;;;;8.16;72.56;99489.88;5012982;28;20152;-78
2023/01/30 10:57:58;;;;;;;22.35;4.28;;;;;;;8.18;71.76;99478.38;5030201;28;20067;-78
2023/01/30 11:00:56;;;;;;;27.17;4.05;;;;;;;8.19;72.30;99474.81;5012677;28;20054;-78
2023/01/30 11:03:36;;;;;;;15.75;2.95;;;;;;;8.24;71.77;99481.59;5030444;28;20148;-79
2023/01/30 11:06:22;;;;;;;19.13;3.67;;;;;;;8.26;71.98;99477.13;5012685;28;20087;-78
2023/01/30 11:08:50;;;;;;;23.40;4.22;;;;;;;8.31;74.29;99485.59;5030213;28;20099;-79
2023/01/30 11:11:41;;;;;;;22.63;3.70;;;;;;;8.27;71.76;99460.47;5030385;28;20053;-78
2023/01/30 11:14:10;;;;;;;16.85;3.70;;;;;;;8.32;74.40;99479.41;5030251;28;20051;-79
2023/01/30 11:16:47;;;;;;;13.00;3.33;;;;;;;8.30;71.92;99478.66;5030035;28;20079;-78
2023/01/30 11:19:16;;;;;;;17.83;3.40;;;;;;;8.36;73.86;99475.72;5030277;28;20613;-79
2023/01/30 11:21:50;;;;;;;18.40;3.63;;;;;;;8.42;74.57;99475.41;5013491;28;20061;-79
2023/01/30 11:24:39;;;;;;;17.63;3.95;;;;;;;8.50;74.42;99476.75;5012768;28;20166;-78
2023/01/30 11:27:28;;;;;;;23.67;3.20;;;;;;;8.61;72.49;99487.56;5029713;28;20172;-78
2023/01/30 11:30:03;;;;;;;21.30;3.63;;;;;;;8.78;72.67;99470.91;5031918;28;20544;-79
2023/01/30 11:32:30;;;;;;;27.80;3.50;;;;;;;8.93;74.98;99481.53;5033960;28;20053;-78
2023/01/30 11:35:05;;;;;;;19.58;3.85;;;;;;;9.11;73.50;99477.00;5033927;28;20133;-78
2023/01/30 11:37:35;;;;;;;14.55;3.10;;;;;;;9.34;76.70;99493.25;5033716;28;20140;-78
2023/01/30 11:40:16;;;;;;;24.17;4.15;;;;;;;9.52;71.82;99481.72;5033814;28;20054;-79
2023/01/30 11:42:48;;;;;;;22.30;3.40;;;;;;;9.74;74.70;99496.28;5033937;28;20057;-78
2023/01/30 11:45:16;;;;;;;13.32;3.28;;;;;;;9.85;73.67;99494.78;5033613;28;20091;-78
2023/01/30 11:47:52;;;;;;;22.42;4.18;;;;;;;9.86;69.91;99476.28;5015796;28;20092;-79
2023/01/30 11:50:30;;;;;;;16.50;3.40;;;;;;;9.90;70.74;99469.06;5033671;28;20100;-79
2023/01/30 11:53:04;;;;;;;16.73;3.45;;;;;;;9.90;70.44;99471.69;5033579;28;20916;-79
2023/01/30 11:55:34;;;;;;;19.80;3.13;;;;;;;9.91;71.78;99470.78;5033416;28;20132;-79
2023/01/30 11:58:04;;;;;;;19.20;3.55;;;;;;;9.91;71.89;99471.59;5033508;28;20069;-79
2023/01/30 12:00:38;;;;;;;19.17;3.60;;;;;;;9.94;68.81;99467.13;5033569;28;20495;-79
2023/01/30 12:03:10;;;;;;;19.00;4.55;;;;;;;10.00;70.85;99464.13;5033270;28;20049;-78